sensor_id;sensor_type;location;lat;lon;timestamp;P1;durP1;ratioP1;P2;durP2;ratioP2
61460;SDS011;47325;50.506;4.472;2023-07-29T00:00:07;2.70;;;0.80;;
61460;SDS011;47325;50.506;4.472;2023-07-29T00:05:53;2.40;;;0.70;;
61460;SDS011;47325;50.506;4.472;2023-07-29T00:11:38;1.30;;;0.70;;
61460;SDS011;47325;50.506;4.472;2023-07-29T00:17:22;1.70;;;1.00;;
61460;SDS011;47325;50.506;4.472;2023-07-29T00:23:06;2.40;;;0.70;;
61460;SDS011;47325;50.506;4.472;2023-07-29T00:28:50;2.30;;;0.90;;
61460;SDS011;47325;50.506;4.472;2023-07-29T00:34:34;2.00;;;0.80;;
61460;SDS011;47325;50.506;4.472;2023-07-29T00:40:19;0.90;;;0.70;;
61460;SDS011;47325;50.506;4.472;2023-07-29T00:46:04;2.50;;;0.90;;
61460;SDS011;47325;50.506;4.472;2023-07-29T00:51:48;1.50;;;1.00;;
61460;SDS011;47325;50.506;4.472;2023-07-29T00:57:33;3.50;;;0.80;;
61460;SDS011;47325;50.506;4.472;2023-07-29T01:03:17;2.10;;;0.70;;
61460;SDS011;47325;50.506;4.472;2023-07-29T01:09:03;1.40;;;0.80;;
61460;SDS011;47325;50.506;4.472;2023-07-29T01:14:50;1.60;;;0.90;;
61460;SDS011;47325;50.506;4.472;2023-07-29T01:20:37;3.00;;;1.00;;
61460;SDS011;47325;50.506;4.472;2023-07-29T01:26:22;1.30;;;0.80;;
61460;SDS011;47325;50.506;4.472;2023-07-29T01:32:08;2.20;;;0.90;;
61460;SDS011;47325;50.506;4.472;2023-07-29T01:37:55;1.20;;;0.90;;
61460;SDS011;47325;50.506;4.472;2023-07-29T01:43:41;1.90;;;0.90;;
61460;SDS011;47325;50.506;4.472;2023-07-29T01:49:26;1.60;;;0.80;;
61460;SDS011;47325;50.506;4.472;2023-07-29T01:55:10;1.60;;;0.80;;
61460;SDS011;47325;50.506;4.472;2023-07-29T02:00:55;1.90;;;0.80;;
61460;SDS011;47325;50.506;4.472;2023-07-29T02:06:40;1.50;;;0.90;;
61460;SDS011;47325;50.506;4.472;2023-07-29T02:12:24;1.70;;;0.80;;
61460;SDS011;47325;50.506;4.472;2023-07-29T02:18:08;2.00;;;0.80;;
61460;SDS011;47325;50.506;4.472;2023-07-29T02:23:53;1.60;;;0.80;;
61460;SDS011;47325;50.506;4.472;2023-07-29T02:29:37;1.60;;;0.90;;
61460;SDS011;47325;50.506;4.472;2023-07-29T02:35:22;2.20;;;0.70;;
61460;SDS011;47325;50.506;4.472;2023-07-29T02:41:07;2.20;;;0.90;;
61460;SDS011;47325;50.506;4.472;2023-07-29T02:46:51;2.80;;;0.90;;
61460;SDS011;47325;50.506;4.472;2023-07-29T02:52:36;3.40;;;1.10;;
61460;SDS011;47325;50.506;4.472;2023-07-29T02:58:20;2.00;;;0.70;;
61460;SDS011;47325;50.506;4.472;2023-07-29T03:04:04;2.10;;;0.80;;
61460;SDS011;47325;50.506;4.472;2023-07-29T03:09:49;2.90;;;1.10;;
61460;SDS011;47325;50.506;4.472;2023-07-29T03:15:33;2.40;;;1.10;;
61460;SDS011;47325;50.506;4.472;2023-07-29T03:21:17;1.70;;;0.80;;
61460;SDS011;47325;50.506;4.472;2023-07-29T03:27:01;1.90;;;0.90;;
61460;SDS011;47325;50.506;4.472;2023-07-29T03:32:46;2.60;;;0.80;;
61460;SDS011;47325;50.506;4.472;2023-07-29T03:38:31;1.50;;;0.80;;
61460;SDS011;47325;50.506;4.472;2023-07-29T03:44:16;2.60;;;0.80;;
61460;SDS011;47325;50.506;4.472;2023-07-29T03:50:02;1.30;;;0.90;;
61460;SDS011;47325;50.506;4.472;2023-07-29T03:55:46;1.20;;;0.70;;
61460;SDS011;47325;50.506;4.472;2023-07-29T04:01:30;1.10;;;0.70;;
61460;SDS011;47325;50.506;4.472;2023-07-29T04:07:15;1.70;;;0.80;;
61460;SDS011;47325;50.506;4.472;2023-07-29T04:12:59;1.40;;;0.80;;
61460;SDS011;47325;50.506;4.472;2023-07-29T04:18:43;1.60;;;0.80;;
61460;SDS011;47325;50.506;4.472;2023-07-29T04:24:28;2.80;;;0.90;;
61460;SDS011;47325;50.506;4.472;2023-07-29T04:30:12;1.30;;;0.80;;
61460;SDS011;47325;50.506;4.472;2023-07-29T04:35:56;2.30;;;0.80;;
61460;SDS011;47325;50.506;4.472;2023-07-29T04:41:41;2.90;;;1.00;;
61460;SDS011;47325;50.506;4.472;2023-07-29T04:47:25;2.90;;;0.80;;
61460;SDS011;47325;50.506;4.472;2023-07-29T04:53:10;1.70;;;0.90;;
61460;SDS011;47325;50.506;4.472;2023-07-29T04:58:55;1.40;;;0.80;;
61460;SDS011;47325;50.506;4.472;2023-07-29T05:04:39;1.80;;;0.80;;
61460;SDS011;47325;50.506;4.472;2023-07-29T05:10:23;1.40;;;0.80;;
61460;SDS011;47325;50.506;4.472;2023-07-29T05:16:08;1.30;;;0.80;;
61460;SDS011;47325;50.506;4.472;2023-07-29T05:21:52;2.70;;;0.80;;
61460;SDS011;47325;50.506;4.472;2023-07-29T05:27:36;1.40;;;0.70;;
61460;SDS011;47325;50.506;4.472;2023-07-29T05:33:21;1.80;;;0.80;;
61460;SDS011;47325;50.506;4.472;2023-07-29T05:39:06;1.60;;;0.80;;
61460;SDS011;47325;50.506;4.472;2023-07-29T05:44:50;1.00;;;0.70;;
61460;SDS011;47325;50.506;4.472;2023-07-29T05:50:34;1.90;;;0.90;;
61460;SDS011;47325;50.506;4.472;2023-07-29T05:56:19;2.30;;;0.80;;
61460;SDS011;47325;50.506;4.472;2023-07-29T06:02:04;2.40;;;0.90;;
61460;SDS011;47325;50.506;4.472;2023-07-29T06:07:52;2.50;;;0.80;;
61460;SDS011;47325;50.506;4.472;2023-07-29T06:13:37;3.80;;;1.20;;
61460;SDS011;47325;50.506;4.472;2023-07-29T06:19:21;2.80;;;1.00;;
61460;SDS011;47325;50.506;4.472;2023-07-29T06:25:06;4.20;;;1.10;;
61460;SDS011;47325;50.506;4.472;2023-07-29T06:30:51;3.30;;;1.20;;
61460;SDS011;47325;50.506;4.472;2023-07-29T06:36:36;2.80;;;1.00;;
61460;SDS011;47325;50.506;4.472;2023-07-29T06:42:21;3.00;;;1.30;;
61460;SDS011;47325;50.506;4.472;2023-07-29T06:48:05;3.10;;;1.10;;
61460;SDS011;47325;50.506;4.472;2023-07-29T06:53:49;4.70;;;1.20;;
61460;SDS011;47325;50.506;4.472;2023-07-29T06:59:33;4.00;;;1.20;;
61460;SDS011;47325;50.506;4.472;2023-07-29T07:05:18;2.30;;;1.10;;
61460;SDS011;47325;50.506;4.472;2023-07-29T07:11:02;2.00;;;0.90;;
61460;SDS011;47325;50.506;4.472;2023-07-29T07:16:47;1.70;;;1.10;;
61460;SDS011;47325;50.506;4.472;2023-07-29T07:22:31;3.20;;;1.00;;
61460;SDS011;47325;50.506;4.472;2023-07-29T07:28:15;2.00;;;1.00;;
61460;SDS011;47325;50.506;4.472;2023-07-29T07:34:00;2.20;;;1.00;;
61460;SDS011;47325;50.506;4.472;2023-07-29T07:39:46;2.30;;;1.00;;
61460;SDS011;47325;50.506;4.472;2023-07-29T07:45:31;2.20;;;0.80;;
61460;SDS011;47325;50.506;4.472;2023-07-29T07:51:15;1.50;;;0.90;;
61460;SDS011;47325;50.506;4.472;2023-07-29T07:57:00;2.70;;;0.90;;
61460;SDS011;47325;50.506;4.472;2023-07-29T08:02:45;1.40;;;0.80;;
61460;SDS011;47325;50.506;4.472;2023-07-29T08:08:37;1.90;;;1.00;;
61460;SDS011;47325;50.506;4.472;2023-07-29T08:14:22;2.00;;;0.80;;
61460;SDS011;47325;50.506;4.472;2023-07-29T08:20:07;1.70;;;0.80;;
61460;SDS011;47325;50.506;4.472;2023-07-29T08:25:58;1.40;;;0.90;;
61460;SDS011;47325;50.506;4.472;2023-07-29T08:31:42;1.60;;;0.90;;
61460;SDS011;47325;50.506;4.472;2023-07-29T08:37:27;2.40;;;1.00;;
61460;SDS011;47325;50.506;4.472;2023-07-29T08:43:11;2.80;;;1.00;;
61460;SDS011;47325;50.506;4.472;2023-07-29T08:48:56;3.70;;;1.00;;
61460;SDS011;47325;50.506;4.472;2023-07-29T08:54:40;3.40;;;1.00;;
61460;SDS011;47325;50.506;4.472;2023-07-29T09:00:25;2.00;;;1.00;;
61460;SDS011;47325;50.506;4.472;2023-07-29T09:06:09;5.40;;;1.20;;
61460;SDS011;47325;50.506;4.472;2023-07-29T09:11:54;2.60;;;1.20;;
61460;SDS011;47325;50.506;4.472;2023-07-29T09:17:38;3.60;;;1.20;;
61460;SDS011;47325;50.506;4.472;2023-07-29T09:23:24;3.50;;;1.20;;
61460;SDS011;47325;50.506;4.472;2023-07-29T09:29:09;1.90;;;1.10;;
61460;SDS011;47325;50.506;4.472;2023-07-29T09:34:53;1.70;;;1.00;;
61460;SDS011;47325;50.506;4.472;2023-07-29T09:40:40;2.50;;;1.00;;
61460;SDS011;47325;50.506;4.472;2023-07-29T09:46:25;1.70;;;1.10;;
61460;SDS011;47325;50.506;4.472;2023-07-29T09:52:10;3.50;;;1.10;;
61460;SDS011;47325;50.506;4.472;2023-07-29T09:57:56;2.20;;;1.00;;
61460;SDS011;47325;50.506;4.472;2023-07-29T10:03:44;2.70;;;0.90;;
61460;SDS011;47325;50.506;4.472;2023-07-29T10:09:29;2.00;;;0.90;;
61460;SDS011;47325;50.506;4.472;2023-07-29T10:15:15;2.70;;;1.00;;
61460;SDS011;47325;50.506;4.472;2023-07-29T10:21:01;2.20;;;1.00;;
61460;SDS011;47325;50.506;4.472;2023-07-29T10:26:53;1.20;;;0.90;;
61460;SDS011;47325;50.506;4.472;2023-07-29T10:32:42;1.80;;;0.90;;
61460;SDS011;47325;50.506;4.472;2023-07-29T10:38:27;1.60;;;1.00;;
61460;SDS011;47325;50.506;4.472;2023-07-29T10:44:14;1.30;;;1.00;;
61460;SDS011;47325;50.506;4.472;2023-07-29T10:50:16;1.90;;;1.00;;
61460;SDS011;47325;50.506;4.472;2023-07-29T10:55:52;3.40;;;0.90;;
61460;SDS011;47325;50.506;4.472;2023-07-29T11:01:37;5.40;;;1.10;;
61460;SDS011;47325;50.506;4.472;2023-07-29T11:07:26;3.70;;;1.20;;
61460;SDS011;47325;50.506;4.472;2023-07-29T11:13:10;5.20;;;1.10;;
61460;SDS011;47325;50.506;4.472;2023-07-29T11:18:55;2.90;;;1.10;;
61460;SDS011;47325;50.506;4.472;2023-07-29T11:24:40;4.80;;;1.10;;
61460;SDS011;47325;50.506;4.472;2023-07-29T11:30:25;3.20;;;1.30;;
61460;SDS011;47325;50.506;4.472;2023-07-29T11:36:09;4.30;;;1.40;;
61460;SDS011;47325;50.506;4.472;2023-07-29T11:41:58;3.40;;;1.20;;
61460;SDS011;47325;50.506;4.472;2023-07-29T11:47:43;4.10;;;1.60;;
61460;SDS011;47325;50.506;4.472;2023-07-29T11:53:29;4.30;;;1.40;;
61460;SDS011;47325;50.506;4.472;2023-07-29T11:59:14;4.30;;;1.40;;
61460;SDS011;47325;50.506;4.472;2023-07-29T12:04:59;8.30;;;1.70;;
61460;SDS011;47325;50.506;4.472;2023-07-29T12:10:43;2.50;;;1.30;;
61460;SDS011;47325;50.506;4.472;2023-07-29T12:16:29;2.50;;;1.30;;
61460;SDS011;47325;50.506;4.472;2023-07-29T12:22:17;6.40;;;1.40;;
61460;SDS011;47325;50.506;4.472;2023-07-29T12:28:05;5.90;;;1.50;;
61460;SDS011;47325;50.506;4.472;2023-07-29T12:33:55;5.30;;;1.30;;
61460;SDS011;47325;50.506;4.472;2023-07-29T12:39:40;3.10;;;0.90;;
61460;SDS011;47325;50.506;4.472;2023-07-29T12:45:24;2.90;;;1.00;;
61460;SDS011;47325;50.506;4.472;2023-07-29T12:51:09;1.30;;;0.80;;
61460;SDS011;47325;50.506;4.472;2023-07-29T12:56:53;1.70;;;0.70;;
61460;SDS011;47325;50.506;4.472;2023-07-29T13:02:38;0.70;;;0.70;;
61460;SDS011;47325;50.506;4.472;2023-07-29T13:08:22;3.20;;;1.10;;
61460;SDS011;47325;50.506;4.472;2023-07-29T13:14:07;1.70;;;0.70;;
61460;SDS011;47325;50.506;4.472;2023-07-29T13:19:51;0.70;;;0.60;;
61460;SDS011;47325;50.506;4.472;2023-07-29T13:25:37;1.00;;;0.60;;
61460;SDS011;47325;50.506;4.472;2023-07-29T13:31:21;3.00;;;0.80;;
61460;SDS011;47325;50.506;4.472;2023-07-29T13:37:06;2.20;;;0.70;;
61460;SDS011;47325;50.506;4.472;2023-07-29T13:42:52;4.40;;;0.60;;
61460;SDS011;47325;50.506;4.472;2023-07-29T13:48:38;1.50;;;0.80;;
61460;SDS011;47325;50.506;4.472;2023-07-29T13:54:22;1.00;;;0.70;;
61460;SDS011;47325;50.506;4.472;2023-07-29T14:00:08;0.90;;;0.70;;
61460;SDS011;47325;50.506;4.472;2023-07-29T14:05:53;1.00;;;0.70;;
61460;SDS011;47325;50.506;4.472;2023-07-29T14:11:37;3.40;;;0.90;;
61460;SDS011;47325;50.506;4.472;2023-07-29T14:17:22;2.20;;;0.80;;
61460;SDS011;47325;50.506;4.472;2023-07-29T14:23:07;3.30;;;0.90;;
61460;SDS011;47325;50.506;4.472;2023-07-29T14:28:51;1.80;;;0.90;;
61460;SDS011;47325;50.506;4.472;2023-07-29T14:34:36;3.40;;;0.70;;
61460;SDS011;47325;50.506;4.472;2023-07-29T14:40:20;1.00;;;0.80;;
61460;SDS011;47325;50.506;4.472;2023-07-29T14:46:05;3.90;;;1.00;;
61460;SDS011;47325;50.506;4.472;2023-07-29T14:51:49;1.00;;;0.70;;
61460;SDS011;47325;50.506;4.472;2023-07-29T14:57:34;1.50;;;0.80;;
61460;SDS011;47325;50.506;4.472;2023-07-29T15:03:18;2.20;;;0.90;;
61460;SDS011;47325;50.506;4.472;2023-07-29T15:09:03;1.70;;;1.00;;
61460;SDS011;47325;50.506;4.472;2023-07-29T15:14:48;1.80;;;0.80;;
61460;SDS011;47325;50.506;4.472;2023-07-29T15:20:32;1.30;;;0.90;;
61460;SDS011;47325;50.506;4.472;2023-07-29T15:26:17;2.10;;;0.90;;
61460;SDS011;47325;50.506;4.472;2023-07-29T15:32:01;1.50;;;0.80;;
61460;SDS011;47325;50.506;4.472;2023-07-29T15:37:45;3.00;;;1.00;;
61460;SDS011;47325;50.506;4.472;2023-07-29T15:43:30;1.70;;;0.90;;
61460;SDS011;47325;50.506;4.472;2023-07-29T15:49:14;1.60;;;0.80;;
61460;SDS011;47325;50.506;4.472;2023-07-29T15:54:58;2.30;;;1.00;;
61460;SDS011;47325;50.506;4.472;2023-07-29T16:00:43;2.40;;;0.90;;
61460;SDS011;47325;50.506;4.472;2023-07-29T16:06:28;1.10;;;0.70;;
61460;SDS011;47325;50.506;4.472;2023-07-29T16:12:12;2.40;;;0.90;;
61460;SDS011;47325;50.506;4.472;2023-07-29T16:17:57;3.10;;;0.70;;
61460;SDS011;47325;50.506;4.472;2023-07-29T16:23:42;1.50;;;0.80;;
61460;SDS011;47325;50.506;4.472;2023-07-29T16:29:26;3.20;;;0.90;;
61460;SDS011;47325;50.506;4.472;2023-07-29T16:35:11;1.30;;;0.80;;
61460;SDS011;47325;50.506;4.472;2023-07-29T16:40:55;1.00;;;0.60;;
61460;SDS011;47325;50.506;4.472;2023-07-29T16:46:59;1.20;;;0.80;;
61460;SDS011;47325;50.506;4.472;2023-07-29T16:52:43;1.80;;;0.70;;
61460;SDS011;47325;50.506;4.472;2023-07-29T16:58:27;68.60;;;61.10;;
61460;SDS011;47325;50.506;4.472;2023-07-29T17:04:12;4.50;;;4.10;;
61460;SDS011;47325;50.506;4.472;2023-07-29T17:09:56;1.60;;;0.90;;
61460;SDS011;47325;50.506;4.472;2023-07-29T17:15:40;1.50;;;0.90;;
61460;SDS011;47325;50.506;4.472;2023-07-29T17:21:25;2.50;;;1.20;;
61460;SDS011;47325;50.506;4.472;2023-07-29T17:27:09;2.30;;;0.80;;
61460;SDS011;47325;50.506;4.472;2023-07-29T17:32:54;2.50;;;0.90;;
61460;SDS011;47325;50.506;4.472;2023-07-29T17:38:42;3.20;;;1.30;;
61460;SDS011;47325;50.506;4.472;2023-07-29T17:44:27;3.80;;;1.10;;
61460;SDS011;47325;50.506;4.472;2023-07-29T17:50:11;5.00;;;1.30;;
61460;SDS011;47325;50.506;4.472;2023-07-29T17:55:56;5.50;;;1.50;;
61460;SDS011;47325;50.506;4.472;2023-07-29T18:01:40;5.20;;;1.40;;
61460;SDS011;47325;50.506;4.472;2023-07-29T18:07:24;7.60;;;1.40;;
61460;SDS011;47325;50.506;4.472;2023-07-29T18:13:10;5.80;;;1.60;;
61460;SDS011;47325;50.506;4.472;2023-07-29T18:18:54;10.60;;;1.70;;
61460;SDS011;47325;50.506;4.472;2023-07-29T18:24:38;8.00;;;2.50;;
61460;SDS011;47325;50.506;4.472;2023-07-29T18:30:23;5.20;;;1.90;;
61460;SDS011;47325;50.506;4.472;2023-07-29T18:36:08;6.00;;;3.70;;
61460;SDS011;47325;50.506;4.472;2023-07-29T18:41:53;6.50;;;2.00;;
61460;SDS011;47325;50.506;4.472;2023-07-29T18:47:37;19.30;;;15.10;;
61460;SDS011;47325;50.506;4.472;2023-07-29T18:53:22;14.20;;;7.30;;
61460;SDS011;47325;50.506;4.472;2023-07-29T18:59:06;24.30;;;17.00;;
61460;SDS011;47325;50.506;4.472;2023-07-29T19:04:51;5.60;;;1.60;;
61460;SDS011;47325;50.506;4.472;2023-07-29T19:10:37;2.40;;;1.60;;
61460;SDS011;47325;50.506;4.472;2023-07-29T19:16:29;5.70;;;1.60;;
61460;SDS011;47325;50.506;4.472;2023-07-29T19:22:15;5.80;;;2.30;;
61460;SDS011;47325;50.506;4.472;2023-07-29T19:27:59;5.40;;;1.60;;
61460;SDS011;47325;50.506;4.472;2023-07-29T19:33:44;5.80;;;1.70;;
61460;SDS011;47325;50.506;4.472;2023-07-29T19:39:29;8.10;;;2.30;;
61460;SDS011;47325;50.506;4.472;2023-07-29T19:45:26;7.40;;;2.40;;
61460;SDS011;47325;50.506;4.472;2023-07-29T19:51:11;16.80;;;8.90;;
61460;SDS011;47325;50.506;4.472;2023-07-29T19:56:56;7.30;;;2.10;;
61460;SDS011;47325;50.506;4.472;2023-07-29T20:02:45;11.10;;;2.90;;
61460;SDS011;47325;50.506;4.472;2023-07-29T20:08:29;8.60;;;2.30;;
61460;SDS011;47325;50.506;4.472;2023-07-29T20:14:13;37.20;;;25.40;;
61460;SDS011;47325;50.506;4.472;2023-07-29T20:19:58;40.00;;;26.00;;
61460;SDS011;47325;50.506;4.472;2023-07-29T20:25:42;31.10;;;19.30;;
61460;SDS011;47325;50.506;4.472;2023-07-29T20:31:27;13.60;;;2.40;;
61460;SDS011;47325;50.506;4.472;2023-07-29T20:37:11;42.30;;;23.60;;
61460;SDS011;47325;50.506;4.472;2023-07-29T20:42:55;15.40;;;7.30;;
61460;SDS011;47325;50.506;4.472;2023-07-29T20:48:40;14.30;;;7.70;;
61460;SDS011;47325;50.506;4.472;2023-07-29T20:54:24;12.40;;;5.90;;
61460;SDS011;47325;50.506;4.472;2023-07-29T21:00:10;452.80;;;376.60;;
61460;SDS011;47325;50.506;4.472;2023-07-29T21:05:54;241.10;;;212.20;;
61460;SDS011;47325;50.506;4.472;2023-07-29T21:11:38;456.30;;;406.40;;
61460;SDS011;47325;50.506;4.472;2023-07-29T21:17:23;440.10;;;346.20;;
61460;SDS011;47325;50.506;4.472;2023-07-29T21:23:07;37.30;;;18.90;;
61460;SDS011;47325;50.506;4.472;2023-07-29T21:28:52;71.60;;;46.40;;
61460;SDS011;47325;50.506;4.472;2023-07-29T21:34:37;71.90;;;30.90;;
61460;SDS011;47325;50.506;4.472;2023-07-29T21:40:23;155.70;;;101.60;;
61460;SDS011;47325;50.506;4.472;2023-07-29T21:46:09;12.00;;;6.90;;
61460;SDS011;47325;50.506;4.472;2023-07-29T21:51:56;129.10;;;109.10;;
61460;SDS011;47325;50.506;4.472;2023-07-29T21:57:40;98.00;;;57.30;;
61460;SDS011;47325;50.506;4.472;2023-07-29T22:03:25;127.90;;;88.60;;
61460;SDS011;47325;50.506;4.472;2023-07-29T22:09:09;55.10;;;42.40;;
61460;SDS011;47325;50.506;4.472;2023-07-29T22:14:53;113.00;;;86.20;;
61460;SDS011;47325;50.506;4.472;2023-07-29T22:20:37;31.60;;;20.30;;
61460;SDS011;47325;50.506;4.472;2023-07-29T22:26:22;181.90;;;156.60;;
61460;SDS011;47325;50.506;4.472;2023-07-29T22:32:07;236.40;;;196.10;;
61460;SDS011;47325;50.506;4.472;2023-07-29T22:37:52;154.10;;;108.30;;
61460;SDS011;47325;50.506;4.472;2023-07-29T22:43:36;19.70;;;10.10;;
61460;SDS011;47325;50.506;4.472;2023-07-29T22:49:20;13.10;;;5.30;;
61460;SDS011;47325;50.506;4.472;2023-07-29T22:55:05;15.90;;;5.00;;
61460;SDS011;47325;50.506;4.472;2023-07-29T23:00:51;9.40;;;3.90;;
61460;SDS011;47325;50.506;4.472;2023-07-29T23:06:35;301.40;;;269.00;;
61460;SDS011;47325;50.506;4.472;2023-07-29T23:12:21;541.30;;;482.20;;
61460;SDS011;47325;50.506;4.472;2023-07-29T23:18:05;822.70;;;725.00;;
61460;SDS011;47325;50.506;4.472;2023-07-29T23:23:51;929.70;;;755.70;;
61460;SDS011;47325;50.506;4.472;2023-07-29T23:29:41;774.00;;;629.70;;
61460;SDS011;47325;50.506;4.472;2023-07-29T23:35:25;555.20;;;423.00;;
61460;SDS011;47325;50.506;4.472;2023-07-29T23:41:10;270.00;;;164.90;;
61460;SDS011;47325;50.506;4.472;2023-07-29T23:46:54;244.70;;;135.30;;
61460;SDS011;47325;50.506;4.472;2023-07-29T23:52:38;422.80;;;317.30;;
61460;SDS011;47325;50.506;4.472;2023-07-29T23:58:23;576.80;;;457.70;;
